Providence, Rhode Island
Traffic Map
Current Weather Conditions
Providence, Rhode Island
Clear
Clear
54°
Feels Like: 54°
Wind Chill: 54° Ceiling: Unl
Heat Index: 54° Visibility: 10mi
Dew Point: 24° Wind: 8mph
Humidity: 31% Direction: 310° (NW)
Pressure: 30.35in Gusts: 20mph
Raw Report DataKPVD 231451Z 31007G17KT 10SM CLR 12/M04 A3035 RMK AO2 SLP278 T01221044 51008
Traffic Incident Summary
Active as of:
Severity:
Category:
InformationThere was an issue retrieving the traffic information for this location. Please try a different location or try again shortly.
Advertisements
Track Severe Weather on mobile